Aviation Digital Data Service (ADDS)

Output produced by METARs form (2152 UTC 19 September 2014)
found at http://www.aviationweather.gov/adds/metars/
 
KDFW 192056Z 1921/2024 12009KT P6SM SCT035 BKN070 
     FM201000 13006KT P6SM BKN030 
     FM201200 15006KT 6SM BR OVC012 
     FM201600 13007KT P6SM OVC022 
     FM201800 14007KT P6SM BKN035